Time,TemperatureF,DewpointF,PressureIn,WindDirection,WindDirectionDegrees,WindSpeedMPH,WindSpeedGustMPH,Humidity,HourlyPrecipIn,Conditions,Clouds,dailyrainin,SoftwareType,DateUTC
2013-02-02 00:05:00,4.8,0.0,30.12,South,188,0.0,0.0,80,0.00,,,0.00,Wunderground v.1.13,2013-02-02 06:05:00,
2013-02-02 00:15:00,4.8,0.0,30.12,South,188,0.0,0.0,80,0.00,,,0.00,Wunderground v.1.13,2013-02-02 06:15:00,
2013-02-02 00:25:00,5.0,0.2,30.11,South,188,0.0,0.0,80,0.00,,,0.00,Wunderground v.1.13,2013-02-02 06:25:00,
2013-02-02 00:30:00,5.0,0.4,30.11,South,188,0.0,0.0,81,0.00,,,0.00,Wunderground v.1.13,2013-02-02 06:30:00,
2013-02-02 00:40:00,5.2,0.6,30.09,South,188,0.0,0.0,81,0.00,,,0.00,Wunderground v.1.13,2013-02-02 06:40:00,
2013-02-02 00:45:00,5.4,0.8,30.09,South,188,0.0,0.0,81,0.00,,,0.00,Wunderground v.1.13,2013-02-02 06:45:00,
2013-02-02 00:55:00,5.4,0.8,30.09,South,188,0.0,0.0,81,0.00,,,0.00,Wunderground v.1.13,2013-02-02 06:55:00,
2013-02-02 01:00:00,5.6,1.0,30.09,South,188,0.0,0.0,81,0.00,,,0.00,Wunderground v.1.13,2013-02-02 07:00:00,
2013-02-02 01:05:00,5.6,1.0,30.08,South,188,0.0,0.0,81,0.00,,,0.00,Wunderground v.1.13,2013-02-02 07:05:00,
2013-02-02 01:15:00,5.8,1.2,30.08,South,188,0.0,0.0,81,0.00,,,0.00,Wunderground v.1.13,2013-02-02 07:15:00,
2013-02-02 01:20:00,5.8,1.2,30.07,South,188,0.0,0.0,81,0.00,,,0.00,Wunderground v.1.13,2013-02-02 07:20:00,
2013-02-02 01:30:00,5.8,1.2,30.07,South,188,0.0,0.0,81,0.00,,,0.00,Wunderground v.1.13,2013-02-02 07:30:00,
2013-02-02 01:35:00,5.8,1.2,30.07,South,188,0.0,0.0,81,0.00,,,0.00,Wunderground v.1.13,2013-02-02 07:35:00,
2013-02-02 01:40:00,5.8,1.2,30.07,South,188,0.0,0.0,81,0.00,,,0.00,Wunderground v.1.13,2013-02-02 07:40:00,
2013-02-02 01:45:00,5.8,1.2,30.07,South,188,0.0,0.0,81,0.00,,,0.00,Wunderground v.1.13,2013-02-02 07:45:00,
2013-02-02 01:50:00,6.0,1.4,30.07,South,188,0.0,0.0,81,0.00,,,0.00,Wunderground v.1.13,2013-02-02 07:50:00,
2013-02-02 01:55:00,6.0,1.4,30.07,South,188,0.0,0.0,81,0.00,,,0.00,Wunderground v.1.13,2013-02-02 07:55:00,
2013-02-02 02:10:00,6.1,1.5,30.07,South,188,0.0,0.0,81,0.00,,,0.00,Wunderground v.1.13,2013-02-02 08:10:00,
2013-02-02 02:20:00,6.1,1.5,30.06,South,188,0.0,0.0,81,0.00,,,0.00,Wunderground v.1.13,2013-02-02 08:20:00,
2013-02-02 02:30:00,6.1,1.5,30.06,South,188,0.0,0.0,81,0.00,,,0.00,Wunderground v.1.13,2013-02-02 08:30:00,
2013-02-02 02:35:00,6.1,1.5,30.06,South,188,0.0,0.0,81,0.00,,,0.00,Wunderground v.1.13,2013-02-02 08:35:00,
2013-02-02 02:45:00,6.1,1.5,30.06,South,188,0.0,0.0,81,0.00,,,0.00,Wunderground v.1.13,2013-02-02 08:45:00,
2013-02-02 02:50:00,6.0,1.4,30.06,South,188,0.0,0.0,81,0.00,,,0.00,Wunderground v.1.13,2013-02-02 08:50:00,
2013-02-02 02:55:00,6.0,1.4,30.06,South,188,0.0,0.0,81,0.00,,,0.00,Wunderground v.1.13,2013-02-02 08:55:00,
2013-02-02 03:05:00,6.1,1.5,30.05,South,188,0.0,0.0,81,0.00,,,0.00,Wunderground v.1.13,2013-02-02 09:05:00,
2013-02-02 03:15:00,6.1,1.5,30.05,South,188,0.0,0.0,81,0.00,,,0.00,Wunderground v.1.13,2013-02-02 09:15:00,
2013-02-02 03:25:00,6.1,1.5,30.05,South,188,0.0,0.0,81,0.00,,,0.00,Wunderground v.1.13,2013-02-02 09:25:00,
2013-02-02 03:35:00,6.1,1.5,30.04,South,175,0.0,0.0,81,0.00,,,0.00,Wunderground v.1.13,2013-02-02 09:35:00,
2013-02-02 03:45:00,6.0,1.4,30.04,SSE,164,0.0,0.0,81,0.00,,,0.00,Wunderground v.1.13,2013-02-02 09:45:00,
2013-02-02 03:50:00,6.0,1.4,30.04,SSE,163,0.0,0.0,81,0.00,,,0.00,Wunderground v.1.13,2013-02-02 09:50:00,
2013-02-02 03:55:00,6.0,1.4,30.04,East,87,0.0,0.0,81,0.00,,,0.00,Wunderground v.1.13,2013-02-02 09:55:00,
2013-02-02 04:05:00,6.0,1.4,30.04,East,86,0.0,2.0,81,0.00,,,0.00,Wunderground v.1.13,2013-02-02 10:05:00,
2013-02-02 04:15:00,5.8,1.2,30.04,East,86,0.0,2.0,81,0.00,,,0.00,Wunderground v.1.13,2013-02-02 10:15:00,
2013-02-02 04:25:00,5.8,1.2,30.03,East,86,0.0,2.0,81,0.00,,,0.00,Wunderground v.1.13,2013-02-02 10:25:00,
2013-02-02 04:35:00,5.8,1.2,30.03,East,84,0.0,2.0,81,0.00,,,0.00,Wunderground v.1.13,2013-02-02 10:35:00,
2013-02-02 04:45:00,5.8,1.2,30.03,East,80,0.0,2.0,81,0.00,,,0.00,Wunderground v.1.13,2013-02-02 10:45:00,
2013-02-02 04:55:00,5.8,1.0,30.03,ENE,78,0.0,2.0,80,0.00,,,0.00,Wunderground v.1.13,2013-02-02 10:55:00,
2013-02-02 05:00:00,5.8,1.2,30.03,ENE,76,0.0,2.0,81,0.00,,,0.00,Wunderground v.1.13,2013-02-02 11:00:00,
2013-02-02 05:05:00,5.8,1.0,30.03,ENE,76,0.0,2.0,80,0.00,,,0.00,Wunderground v.1.13,2013-02-02 11:05:00,
2013-02-02 05:15:00,5.8,1.0,30.03,ENE,76,0.0,2.0,80,0.00,,,0.00,Wunderground v.1.13,2013-02-02 11:15:00,
2013-02-02 05:20:00,5.8,1.0,30.04,ENE,76,0.0,2.0,80,0.00,,,0.00,Wunderground v.1.13,2013-02-02 11:20:00,
2013-02-02 05:30:00,5.8,1.0,30.04,ENE,76,0.0,2.0,80,0.00,,,0.00,Wunderground v.1.13,2013-02-02 11:30:00,
2013-02-02 05:40:00,5.8,1.0,30.03,ENE,76,0.0,2.0,80,0.00,,,0.00,Wunderground v.1.13,2013-02-02 11:40:00,
2013-02-02 05:50:00,6.0,1.2,30.03,ENE,72,0.0,2.0,80,0.00,,,0.00,Wunderground v.1.13,2013-02-02 11:50:00,
2013-02-02 06:00:00,6.0,1.2,30.03,ENE,71,0.0,2.0,80,0.00,,,0.00,Wunderground v.1.13,2013-02-02 12:00:00,
2013-02-02 06:05:00,6.0,1.2,30.04,ENE,70,0.0,4.0,80,0.00,,,0.00,Wunderground v.1.13,2013-02-02 12:05:00,
2013-02-02 06:15:00,6.1,1.3,30.04,ENE,69,0.0,4.0,80,0.00,,,0.00,Wunderground v.1.13,2013-02-02 12:15:00,
2013-02-02 06:25:00,6.1,1.3,30.04,ENE,63,0.0,4.0,80,0.00,,,0.00,Wunderground v.1.13,2013-02-02 12:25:00,
2013-02-02 06:30:00,6.1,1.3,30.04,ENE,59,0.0,4.0,80,0.00,,,0.00,Wunderground v.1.13,2013-02-02 12:30:00,
2013-02-02 06:40:00,6.1,1.3,30.04,ENE,58,0.0,4.0,80,0.00,,,0.00,Wunderground v.1.13,2013-02-02 12:40:00,
2013-02-02 06:50:00,6.0,0.9,30.05,North,11,1.0,1.0,79,0.00,,,0.00,Wunderground v.1.13,2013-02-02 12:50:00,
2013-02-02 07:00:00,6.0,0.9,30.05,NNE,15,2.0,2.0,79,0.00,,,0.00,Wunderground v.1.13,2013-02-02 13:00:00,
2013-02-02 07:05:00,6.0,0.9,30.05,NE,37,1.0,1.0,79,0.00,,,0.00,Wunderground v.1.13,2013-02-02 13:05:00,
2013-02-02 07:15:00,6.0,0.9,30.05,North,11,1.0,6.0,79,0.00,,,0.00,Wunderground v.1.13,2013-02-02 13:15:00,
2013-02-02 07:20:00,5.8,0.4,30.06,NNE,12,1.0,1.0,78,0.00,,,0.00,Wunderground v.1.13,2013-02-02 13:20:00,
2013-02-02 07:25:00,5.8,0.4,30.06,North,9,1.0,1.0,78,0.00,,,0.00,Wunderground v.1.13,2013-02-02 13:25:00,
2013-02-02 07:35:00,5.6,-0.1,30.06,North,355,3.0,6.0,77,0.00,,,0.00,Wunderground v.1.13,2013-02-02 13:35:00,
2013-02-02 07:45:00,5.6,-0.3,30.06,NNE,12,3.0,6.0,76,0.00,,,0.00,Wunderground v.1.13,2013-02-02 13:45:00,
2013-02-02 07:55:00,5.6,-0.3,30.07,NNE,13,2.0,2.0,76,0.00,,,0.00,Wunderground v.1.13,2013-02-02 13:55:00,
2013-02-02 08:00:00,5.6,-0.6,30.07,NNW,347,3.0,6.0,75,0.00,,,0.00,Wunderground v.1.13,2013-02-02 14:00:00,
2013-02-02 08:05:00,5.4,-0.8,30.07,NNW,334,3.0,11.0,75,0.00,,,0.00,Wunderground v.1.13,2013-02-02 14:05:00,
2013-02-02 08:15:00,5.6,-0.9,30.07,NNW,338,3.0,11.0,74,0.00,,,0.00,Wunderground v.1.13,2013-02-02 14:15:00,
2013-02-02 08:25:00,5.6,-0.9,30.07,NNW,340,3.0,3.0,74,0.00,,,0.00,Wunderground v.1.13,2013-02-02 14:25:00,
2013-02-02 08:35:00,5.6,-1.2,30.08,NNW,343,2.0,11.0,73,0.00,,,0.00,Wunderground v.1.13,2013-02-02 14:35:00,
2013-02-02 08:45:00,5.8,-1.0,30.08,NNW,333,2.0,2.0,73,0.00,,,0.00,Wunderground v.1.13,2013-02-02 14:45:00,
2013-02-02 08:50:00,5.8,-1.3,30.08,North,360,3.0,3.0,72,0.00,,,0.00,Wunderground v.1.13,2013-02-02 14:50:00,
2013-02-02 09:00:00,6.0,-1.1,30.08,North,350,2.0,2.0,72,0.00,,,0.00,Wunderground v.1.13,2013-02-02 15:00:00,
2013-02-02 09:05:00,6.1,-1.0,30.09,NNW,337,3.0,11.0,72,0.00,,,0.00,Wunderground v.1.13,2013-02-02 15:05:00,
2013-02-02 09:15:00,6.1,-1.3,30.09,North,10,2.0,11.0,71,0.00,,,0.00,Wunderground v.1.13,2013-02-02 15:15:00,
2013-02-02 09:20:00,6.1,-1.3,30.09,NW,314,3.0,3.0,71,0.00,,,0.00,Wunderground v.1.13,2013-02-02 15:20:00,
2013-02-02 09:30:00,6.3,-1.1,30.09,NW,316,2.0,11.0,71,0.00,,,0.00,Wunderground v.1.13,2013-02-02 15:30:00,
2013-02-02 09:35:00,6.3,-1.4,30.08,NNW,338,2.0,2.0,70,0.00,,,0.00,Wunderground v.1.13,2013-02-02 15:35:00,
2013-02-02 09:40:00,6.3,-1.4,30.08,NNW,337,3.0,3.0,70,0.00,,,0.00,Wunderground v.1.13,2013-02-02 15:40:00,
2013-02-02 09:50:00,6.3,-1.7,30.09,NNW,346,4.0,4.0,69,0.00,,,0.00,Wunderground v.1.13,2013-02-02 15:50:00,
2013-02-02 09:55:00,6.3,-1.7,30.09,NNW,337,5.0,11.0,69,0.00,,,0.00,Wunderground v.1.13,2013-02-02 15:55:00,
2013-02-02 10:00:00,6.3,-2.0,30.09,WNW,298,4.0,11.0,68,0.00,,,0.00,Wunderground v.1.13,2013-02-02 16:00:00,
2013-02-02 10:05:00,6.5,-1.5,30.09,North,350,4.0,4.0,69,0.00,,,0.00,Wunderground v.1.13,2013-02-02 16:05:00,
2013-02-02 10:15:00,6.7,-1.6,30.09,NNW,344,4.0,4.0,68,0.00,,,0.00,Wunderground v.1.13,2013-02-02 16:15:00,
2013-02-02 10:25:00,7.0,-1.3,30.09,NW,323,3.0,11.0,68,0.00,,,0.00,Wunderground v.1.13,2013-02-02 16:25:00,
2013-02-02 10:35:00,6.9,-1.8,30.09,North,355,6.0,6.0,67,0.00,,,0.00,Wunderground v.1.13,2013-02-02 16:35:00,
2013-02-02 10:45:00,6.7,-2.3,30.09,NNW,327,5.0,11.0,66,0.00,,,0.00,Wunderground v.1.13,2013-02-02 16:45:00,
2013-02-02 10:55:00,7.0,-1.7,30.09,NNW,348,4.0,11.0,67,0.00,,,0.00,Wunderground v.1.13,2013-02-02 16:55:00,
2013-02-02 11:05:00,7.4,-1.3,30.09,NW,304,4.0,4.0,67,0.00,,,0.00,Wunderground v.1.13,2013-02-02 17:05:00,
2013-02-02 11:15:00,7.7,-1.3,30.09,NW,309,5.0,5.0,66,0.00,,,0.00,Wunderground v.1.13,2013-02-02 17:15:00,
2013-02-02 11:20:00,7.9,-1.1,30.09,NW,319,4.0,12.0,66,0.00,,,0.00,Wunderground v.1.13,2013-02-02 17:20:00,
2013-02-02 11:25:00,8.3,-1.1,30.09,NW,310,3.0,12.0,65,0.00,,,0.00,Wunderground v.1.13,2013-02-02 17:25:00,
2013-02-02 11:30:00,8.3,-1.1,30.09,NNW,327,3.0,12.0,65,0.00,,,0.00,Wunderground v.1.13,2013-02-02 17:30:00,
2013-02-02 11:40:00,8.3,-1.4,30.09,North,351,5.0,12.0,64,0.00,,,0.00,Wunderground v.1.13,2013-02-02 17:40:00,
2013-02-02 11:45:00,8.3,-1.4,30.09,NNW,331,4.0,4.0,64,0.00,,,0.00,Wunderground v.1.13,2013-02-02 17:45:00,
2013-02-02 11:55:00,8.8,-0.9,30.08,NNW,346,3.0,12.0,64,0.00,,,0.00,Wunderground v.1.13,2013-02-02 17:55:00,
2013-02-02 12:00:00,8.8,-1.2,30.08,NNW,329,3.0,3.0,63,0.00,,,0.00,Wunderground v.1.13,2013-02-02 18:00:00,
2013-02-02 12:05:00,8.6,-1.4,30.08,North,360,4.0,4.0,63,0.00,,,0.00,Wunderground v.1.13,2013-02-02 18:05:00,
2013-02-02 12:15:00,8.4,-1.6,30.08,NNW,340,4.0,10.0,63,0.00,,,0.00,Wunderground v.1.13,2013-02-02 18:15:00,
2013-02-02 12:20:00,8.4,-1.6,30.08,NE,38,4.0,4.0,63,0.00,,,0.00,Wunderground v.1.13,2013-02-02 18:20:00,
2013-02-02 12:30:00,9.0,-1.1,30.08,NNW,336,2.0,10.0,63,0.00,,,0.00,Wunderground v.1.13,2013-02-02 18:30:00,
2013-02-02 12:40:00,8.6,-1.8,30.08,North,355,3.0,10.0,62,0.00,,,0.00,Wunderground v.1.13,2013-02-02 18:40:00,
2013-02-02 12:50:00,8.3,-2.1,30.07,North,351,4.0,4.0,62,0.00,,,0.00,Wunderground v.1.13,2013-02-02 18:50:00,
2013-02-02 12:55:00,8.3,-2.1,30.07,North,355,4.0,4.0,62,0.00,,,0.00,Wunderground v.1.13,2013-02-02 18:55:00,
2013-02-02 13:05:00,8.6,-2.1,30.07,NW,326,5.0,5.0,61,0.00,,,0.00,Wunderground v.1.13,2013-02-02 19:05:00,
2013-02-02 13:15:00,8.6,-2.5,30.07,NW,322,4.0,11.0,60,0.00,,,0.00,Wunderground v.1.13,2013-02-02 19:15:00,
2013-02-02 13:25:00,8.6,-2.1,30.08,NNW,334,4.0,4.0,61,0.00,,,0.00,Wunderground v.1.13,2013-02-02 19:25:00,
2013-02-02 13:35:00,8.6,-2.5,30.08,NW,325,3.0,3.0,60,0.00,,,0.00,Wunderground v.1.13,2013-02-02 19:35:00,
2013-02-02 13:40:00,8.6,-2.5,30.08,North,355,4.0,4.0,60,0.00,,,0.00,Wunderground v.1.13,2013-02-02 19:40:00,
2013-02-02 13:50:00,9.2,-1.9,30.08,WNW,299,3.0,3.0,60,0.00,,,0.00,Wunderground v.1.13,2013-02-02 19:50:00,
2013-02-02 14:00:00,9.3,-2.9,30.08,NNW,333,2.0,11.0,57,0.00,,,0.00,Wunderground v.1.13,2013-02-02 20:00:00,
2013-02-02 14:05:00,9.3,-2.5,30.08,NNW,333,3.0,10.0,58,0.00,,,0.00,Wunderground v.1.13,2013-02-02 20:05:00,
2013-02-02 14:15:00,9.0,-3.2,30.08,NW,325,3.0,3.0,57,0.00,,,0.00,Wunderground v.1.13,2013-02-02 20:15:00,
2013-02-02 14:25:00,9.2,-3.0,30.08,NNW,329,2.0,10.0,57,0.00,,,0.00,Wunderground v.1.13,2013-02-02 20:25:00,
2013-02-02 14:35:00,9.9,-2.3,30.08,NNW,329,1.0,1.0,57,0.00,,,0.00,Wunderground v.1.13,2013-02-02 20:35:00,
2013-02-02 14:45:00,9.3,-2.9,30.08,NW,313,1.0,1.0,57,0.00,,,0.00,Wunderground v.1.13,2013-02-02 20:45:00,
2013-02-02 14:50:00,9.3,-2.5,30.08,NW,315,1.0,1.0,58,0.00,,,0.00,Wunderground v.1.13,2013-02-02 20:50:00,
2013-02-02 15:00:00,9.2,-3.0,30.08,NW,321,1.0,1.0,57,0.00,,,0.00,Wunderground v.1.13,2013-02-02 21:00:00,
2013-02-02 15:05:00,8.8,-3.4,30.08,NW,319,1.0,1.0,57,0.00,,,0.00,Wunderground v.1.13,2013-02-02 21:05:00,
2013-02-02 15:15:00,8.6,-3.2,30.08,NW,319,0.0,7.0,58,0.00,,,0.00,Wunderground v.1.13,2013-02-02 21:15:00,
2013-02-02 15:25:00,8.4,-3.4,30.08,NW,304,1.0,1.0,58,0.00,,,0.00,Wunderground v.1.13,2013-02-02 21:25:00,
2013-02-02 15:35:00,8.3,-3.5,30.08,WNW,286,1.0,1.0,58,0.00,,,0.00,Wunderground v.1.13,2013-02-02 21:35:00,
2013-02-02 15:40:00,8.3,-3.1,30.08,WNW,287,1.0,7.0,59,0.00,,,0.00,Wunderground v.1.13,2013-02-02 21:40:00,
2013-02-02 15:45:00,8.3,-3.5,30.08,WNW,287,1.0,1.0,58,0.00,,,0.00,Wunderground v.1.13,2013-02-02 21:45:00,
2013-02-02 15:50:00,8.3,-3.5,30.08,WNW,287,1.0,1.0,58,0.00,,,0.00,Wunderground v.1.13,2013-02-02 21:50:00,
2013-02-02 15:55:00,8.3,-3.1,30.08,WNW,287,0.0,7.0,59,0.00,,,0.00,Wunderground v.1.13,2013-02-02 21:55:00,
2013-02-02 16:05:00,8.3,-3.1,30.08,WNW,287,0.0,5.0,59,0.00,,,0.00,Wunderground v.1.13,2013-02-02 22:05:00,
2013-02-02 16:15:00,8.1,-3.3,30.08,WNW,287,0.0,5.0,59,0.00,,,0.00,Wunderground v.1.13,2013-02-02 22:15:00,
2013-02-02 16:25:00,8.1,-3.3,30.08,WNW,287,0.0,5.0,59,0.00,,,0.00,Wunderground v.1.13,2013-02-02 22:25:00,
2013-02-02 16:30:00,7.9,-3.5,30.08,WNW,287,0.0,5.0,59,0.00,,,0.00,Wunderground v.1.13,2013-02-02 22:30:00,
2013-02-02 16:40:00,7.7,-3.7,30.08,WNW,287,0.0,5.0,59,0.00,,,0.00,Wunderground v.1.13,2013-02-02 22:40:00,
2013-02-02 16:45:00,7.6,-3.8,30.08,WNW,287,0.0,5.0,59,0.00,,,0.00,Wunderground v.1.13,2013-02-02 22:45:00,
2013-02-02 16:50:00,7.4,-3.6,30.08,WNW,287,0.0,5.0,60,0.00,,,0.00,Wunderground v.1.13,2013-02-02 22:50:00,
2013-02-02 17:00:00,7.2,-3.8,30.08,WNW,287,0.0,5.0,60,0.00,,,0.00,Wunderground v.1.13,2013-02-02 23:00:00,
2013-02-02 17:05:00,7.0,-3.6,30.08,WNW,287,0.0,0.0,61,0.00,,,0.00,Wunderground v.1.13,2013-02-02 23:05:00,
2013-02-02 17:15:00,6.7,-3.9,30.08,WNW,287,0.0,0.0,61,0.00,,,0.00,Wunderground v.1.13,2013-02-02 23:15:00,
2013-02-02 17:20:00,6.5,-3.8,30.09,WNW,287,0.0,0.0,62,0.00,,,0.00,Wunderground v.1.13,2013-02-02 23:20:00,
2013-02-02 17:30:00,5.8,-4.1,30.09,WNW,287,0.0,0.0,63,0.00,,,0.00,Wunderground v.1.13,2013-02-02 23:30:00,
2013-02-02 17:35:00,5.4,-4.2,30.09,WNW,287,0.0,0.0,64,0.00,,,0.00,Wunderground v.1.13,2013-02-02 23:35:00,
2013-02-02 17:45:00,4.8,-4.1,30.09,WNW,287,0.0,0.0,66,0.00,,,0.00,Wunderground v.1.13,2013-02-02 23:45:00,
2013-02-02 17:50:00,4.7,-4.2,30.09,WNW,287,0.0,0.0,66,0.00,,,0.00,Wunderground v.1.13,2013-02-02 23:50:00,
2013-02-02 17:55:00,4.5,-4.4,30.09,WNW,287,0.0,0.0,66,0.00,,,0.00,Wunderground v.1.13,2013-02-02 23:55:00,
2013-02-02 18:00:00,4.5,-4.1,30.09,WNW,287,0.0,0.0,67,0.00,,,0.00,Wunderground v.1.13,2013-02-03 00:00:00,
2013-02-02 18:05:00,4.5,-4.1,30.10,WNW,287,0.0,0.0,67,0.00,,,0.00,Wunderground v.1.13,2013-02-03 00:05:00,
2013-02-02 18:15:00,4.3,-3.9,30.10,WNW,287,0.0,0.0,68,0.00,,,0.00,Wunderground v.1.13,2013-02-03 00:15:00,
2013-02-02 18:25:00,4.5,-3.4,30.10,WNW,287,0.0,0.0,69,0.00,,,0.00,Wunderground v.1.13,2013-02-03 00:25:00,
2013-02-02 18:35:00,4.7,-3.2,30.09,WNW,287,0.0,0.0,69,0.00,,,0.00,Wunderground v.1.13,2013-02-03 00:35:00,
2013-02-02 18:45:00,4.5,-3.1,30.09,WNW,287,0.0,0.0,70,0.00,,,0.00,Wunderground v.1.13,2013-02-03 00:45:00,
2013-02-02 18:50:00,4.3,-3.3,30.09,WNW,287,0.0,0.0,70,0.00,,,0.00,Wunderground v.1.13,2013-02-03 00:50:00,
2013-02-02 19:00:00,4.5,-2.8,30.09,WNW,287,0.0,0.0,71,0.00,,,0.00,Wunderground v.1.13,2013-02-03 01:00:00,
2013-02-02 19:05:00,4.7,-2.6,30.09,WNW,287,0.0,0.0,71,0.00,,,0.00,Wunderground v.1.13,2013-02-03 01:05:00,
2013-02-02 19:15:00,5.4,-2.3,30.09,WNW,287,0.0,0.0,70,0.00,,,0.00,Wunderground v.1.13,2013-02-03 01:15:00,
2013-02-02 19:25:00,6.0,-2.0,30.09,WNW,287,0.0,0.0,69,0.00,,,0.00,Wunderground v.1.13,2013-02-03 01:25:00,
2013-02-02 19:30:00,6.1,-2.2,30.09,WNW,287,0.0,0.0,68,0.00,,,0.00,Wunderground v.1.13,2013-02-03 01:30:00,
2013-02-02 19:40:00,6.1,-2.2,30.08,WNW,287,0.0,0.0,68,0.00,,,0.00,Wunderground v.1.13,2013-02-03 01:40:00,
2013-02-02 19:45:00,6.0,-2.3,30.08,WNW,287,0.0,0.0,68,0.00,,,0.00,Wunderground v.1.13,2013-02-03 01:45:00,
2013-02-02 19:50:00,5.8,-2.5,30.08,WNW,287,0.0,0.0,68,0.00,,,0.00,Wunderground v.1.13,2013-02-03 01:50:00,
2013-02-02 19:55:00,5.8,-2.2,30.08,WNW,287,0.0,0.0,69,0.00,,,0.00,Wunderground v.1.13,2013-02-03 01:55:00,
2013-02-02 20:00:00,5.8,-2.2,30.08,WNW,287,0.0,0.0,69,0.00,,,0.00,Wunderground v.1.13,2013-02-03 02:00:00,
2013-02-02 20:05:00,5.8,-2.2,30.07,WNW,287,0.0,0.0,69,0.00,,,0.00,Wunderground v.1.13,2013-02-03 02:05:00,
2013-02-02 20:15:00,5.2,-2.8,30.07,WNW,287,0.0,0.0,69,0.00,,,0.00,Wunderground v.1.13,2013-02-03 02:15:00,
2013-02-02 20:25:00,4.3,-3.6,30.07,WNW,287,0.0,0.0,69,0.00,,,0.00,Wunderground v.1.13,2013-02-03 02:25:00,
2013-02-02 20:35:00,3.7,-3.9,30.07,WNW,287,0.0,0.0,70,0.00,,,0.00,Wunderground v.1.13,2013-02-03 02:35:00,
2013-02-02 20:45:00,3.4,-4.2,30.07,WNW,287,0.0,0.0,70,0.00,,,0.00,Wunderground v.1.13,2013-02-03 02:45:00,
2013-02-02 20:50:00,3.0,-4.3,30.06,WNW,287,0.0,0.0,71,0.00,,,0.00,Wunderground v.1.13,2013-02-03 02:50:00,
2013-02-02 20:55:00,2.6,-4.7,30.06,WNW,287,0.0,0.0,71,0.00,,,0.00,Wunderground v.1.13,2013-02-03 02:55:00,
2013-02-02 21:00:00,2.2,-5.1,30.06,WNW,287,0.0,0.0,71,0.00,,,0.00,Wunderground v.1.13,2013-02-03 03:00:00,
2013-02-02 21:05:00,1.8,-5.2,30.05,WNW,287,0.0,0.0,72,0.00,,,0.00,Wunderground v.1.13,2013-02-03 03:05:00,
2013-02-02 21:15:00,1.3,-5.6,30.05,WNW,287,0.0,0.0,72,0.00,,,0.00,Wunderground v.1.13,2013-02-03 03:15:00,
2013-02-02 21:25:00,0.5,-6.1,30.05,WNW,287,0.0,0.0,73,0.00,,,0.00,Wunderground v.1.13,2013-02-03 03:25:00,
2013-02-02 21:30:00,0.7,-5.6,30.05,WNW,287,0.0,0.0,74,0.00,,,0.00,Wunderground v.1.13,2013-02-03 03:30:00,
2013-02-02 21:40:00,0.5,-5.8,30.04,WNW,287,0.0,0.0,74,0.00,,,0.00,Wunderground v.1.13,2013-02-03 03:40:00,
2013-02-02 21:50:00,0.3,-5.8,30.04,WNW,287,0.0,0.0,75,0.00,,,0.00,Wunderground v.1.13,2013-02-03 03:50:00,
2013-02-02 22:00:00,0.1,-5.7,30.04,WNW,287,0.0,0.0,76,0.00,,,0.00,Wunderground v.1.13,2013-02-03 04:00:00,
2013-02-02 22:05:00,0.1,-5.7,30.04,WNW,287,0.0,0.0,76,0.00,,,0.00,Wunderground v.1.13,2013-02-03 04:05:00,
2013-02-02 22:15:00,0.3,-5.2,30.04,WNW,287,0.0,0.0,77,0.00,,,0.00,Wunderground v.1.13,2013-02-03 04:15:00,
2013-02-02 22:25:00,0.5,-5.0,30.03,WNW,287,0.0,0.0,77,0.00,,,0.00,Wunderground v.1.13,2013-02-03 04:25:00,
2013-02-02 22:35:00,0.3,-4.9,30.03,WNW,287,0.0,0.0,78,0.00,,,0.00,Wunderground v.1.13,2013-02-03 04:35:00,
2013-02-02 22:40:00,0.3,-4.9,30.03,WNW,287,0.0,0.0,78,0.00,,,0.00,Wunderground v.1.13,2013-02-03 04:40:00,
2013-02-02 22:50:00,0.7,-4.3,30.03,WNW,287,0.0,0.0,79,0.00,,,0.00,Wunderground v.1.13,2013-02-03 04:50:00,
2013-02-02 22:55:00,0.9,-4.1,30.03,WNW,287,0.0,0.0,79,0.00,,,0.00,Wunderground v.1.13,2013-02-03 04:55:00,
2013-02-02 23:05:00,1.3,-3.7,30.02,WNW,287,0.0,0.0,79,0.00,,,0.00,Wunderground v.1.13,2013-02-03 05:05:00,
2013-02-02 23:10:00,1.5,-3.5,30.02,WNW,287,0.0,0.0,79,0.00,,,0.00,Wunderground v.1.13,2013-02-03 05:10:00,
2013-02-02 23:15:00,1.5,-3.5,30.02,WNW,287,0.0,0.0,79,0.00,,,0.00,Wunderground v.1.13,2013-02-03 05:15:00,
2013-02-02 23:20:00,1.8,-3.2,30.01,WNW,287,0.0,0.0,79,0.00,,,0.00,Wunderground v.1.13,2013-02-03 05:20:00,
2013-02-02 23:30:00,2.2,-2.8,30.01,WNW,287,0.0,0.0,79,0.00,,,0.00,Wunderground v.1.13,2013-02-03 05:30:00,
2013-02-02 23:40:00,2.2,-2.8,30.01,WNW,287,0.0,0.0,79,0.00,,,0.00,Wunderground v.1.13,2013-02-03 05:40:00,
2013-02-02 23:45:00,2.2,-2.8,30.01,WNW,287,0.0,0.0,79,0.00,,,0.00,Wunderground v.1.13,2013-02-03 05:45:00,
2013-02-02 23:50:00,2.4,-2.6,30.01,WNW,287,0.0,0.0,79,0.00,,,0.00,Wunderground v.1.13,2013-02-03 05:50:00,